sensor_id;sensor_type;location;lat;lon;timestamp;P1;durP1;ratioP1;P2;durP2;ratioP2
44670;SDS011;48397;53.016;-2.260;2023-06-04T00:01:16;7.47;;;2.95;;
44670;SDS011;48397;53.016;-2.260;2023-06-04T00:03:44;10.35;;;2.65;;
44670;SDS011;48397;53.016;-2.260;2023-06-04T00:06:13;10.98;;;3.03;;
44670;SDS011;48397;53.016;-2.260;2023-06-04T00:08:41;8.75;;;3.03;;
44670;SDS011;48397;53.016;-2.260;2023-06-04T00:11:09;10.18;;;2.80;;
44670;SDS011;48397;53.016;-2.260;2023-06-04T00:13:37;10.75;;;3.30;;
44670;SDS011;48397;53.016;-2.260;2023-06-04T00:18:34;11.05;;;2.60;;
44670;SDS011;48397;53.016;-2.260;2023-06-04T00:21:02;8.30;;;2.90;;
44670;SDS011;48397;53.016;-2.260;2023-06-04T00:23:30;14.43;;;3.40;;
44670;SDS011;48397;53.016;-2.260;2023-06-04T00:25:59;13.75;;;3.25;;
44670;SDS011;48397;53.016;-2.260;2023-06-04T00:28:29;10.63;;;3.30;;
44670;SDS011;48397;53.016;-2.260;2023-06-04T00:30:58;12.32;;;3.42;;
44670;SDS011;48397;53.016;-2.260;2023-06-04T00:33:26;13.25;;;3.88;;
44670;SDS011;48397;53.016;-2.260;2023-06-04T00:35:54;11.75;;;3.33;;
44670;SDS011;48397;53.016;-2.260;2023-06-04T00:38:22;12.85;;;3.63;;
44670;SDS011;48397;53.016;-2.260;2023-06-04T00:40:53;15.60;;;4.05;;
44670;SDS011;48397;53.016;-2.260;2023-06-04T00:43:21;16.30;;;3.78;;
44670;SDS011;48397;53.016;-2.260;2023-06-04T00:45:52;13.45;;;3.53;;
44670;SDS011;48397;53.016;-2.260;2023-06-04T00:48:21;11.65;;;4.20;;
44670;SDS011;48397;53.016;-2.260;2023-06-04T00:50:49;10.40;;;3.65;;
44670;SDS011;48397;53.016;-2.260;2023-06-04T00:53:17;11.30;;;3.80;;
44670;SDS011;48397;53.016;-2.260;2023-06-04T00:55:45;8.52;;;3.60;;
44670;SDS011;48397;53.016;-2.260;2023-06-04T01:00:46;13.32;;;4.47;;
44670;SDS011;48397;53.016;-2.260;2023-06-04T01:03:15;12.35;;;3.90;;
44670;SDS011;48397;53.016;-2.260;2023-06-04T01:08:27;14.68;;;3.97;;
44670;SDS011;48397;53.016;-2.260;2023-06-04T01:10:55;9.82;;;4.30;;
44670;SDS011;48397;53.016;-2.260;2023-06-04T01:13:23;10.77;;;4.40;;
44670;SDS011;48397;53.016;-2.260;2023-06-04T01:15:52;9.07;;;4.05;;
44670;SDS011;48397;53.016;-2.260;2023-06-04T01:20:59;11.63;;;4.07;;
44670;SDS011;48397;53.016;-2.260;2023-06-04T01:26:26;12.48;;;4.10;;
44670;SDS011;48397;53.016;-2.260;2023-06-04T01:28:58;10.65;;;3.78;;
44670;SDS011;48397;53.016;-2.260;2023-06-04T01:31:28;11.35;;;3.75;;
44670;SDS011;48397;53.016;-2.260;2023-06-04T01:34:00;14.50;;;3.95;;
44670;SDS011;48397;53.016;-2.260;2023-06-04T01:36:29;11.25;;;3.80;;
44670;SDS011;48397;53.016;-2.260;2023-06-04T01:38:57;16.35;;;4.72;;
44670;SDS011;48397;53.016;-2.260;2023-06-04T01:41:26;14.52;;;4.05;;
44670;SDS011;48397;53.016;-2.260;2023-06-04T01:43:55;8.00;;;3.85;;
44670;SDS011;48397;53.016;-2.260;2023-06-04T01:48:51;11.35;;;3.67;;
44670;SDS011;48397;53.016;-2.260;2023-06-04T01:51:21;9.38;;;3.97;;
44670;SDS011;48397;53.016;-2.260;2023-06-04T01:53:50;9.00;;;4.03;;
44670;SDS011;48397;53.016;-2.260;2023-06-04T01:56:19;8.35;;;3.80;;
44670;SDS011;48397;53.016;-2.260;2023-06-04T01:58:48;8.98;;;4.28;;
44670;SDS011;48397;53.016;-2.260;2023-06-04T02:01:17;10.60;;;4.28;;
44670;SDS011;48397;53.016;-2.260;2023-06-04T02:03:46;14.15;;;5.05;;
44670;SDS011;48397;53.016;-2.260;2023-06-04T02:06:14;12.75;;;4.40;;
44670;SDS011;48397;53.016;-2.260;2023-06-04T02:08:42;11.40;;;4.47;;
44670;SDS011;48397;53.016;-2.260;2023-06-04T02:11:11;11.63;;;5.07;;
44670;SDS011;48397;53.016;-2.260;2023-06-04T02:13:39;12.10;;;4.35;;
44670;SDS011;48397;53.016;-2.260;2023-06-04T02:16:07;15.02;;;4.60;;
44670;SDS011;48397;53.016;-2.260;2023-06-04T02:18:37;15.60;;;5.45;;
44670;SDS011;48397;53.016;-2.260;2023-06-04T02:21:05;10.63;;;4.68;;
44670;SDS011;48397;53.016;-2.260;2023-06-04T02:23:33;12.38;;;4.50;;
44670;SDS011;48397;53.016;-2.260;2023-06-04T02:26:01;10.75;;;4.40;;
44670;SDS011;48397;53.016;-2.260;2023-06-04T02:30:57;17.33;;;5.13;;
44670;SDS011;48397;53.016;-2.260;2023-06-04T02:33:24;15.48;;;4.68;;
44670;SDS011;48397;53.016;-2.260;2023-06-04T02:35:52;9.85;;;4.38;;
44670;SDS011;48397;53.016;-2.260;2023-06-04T02:38:20;13.68;;;5.90;;
44670;SDS011;48397;53.016;-2.260;2023-06-04T02:40:48;9.77;;;4.60;;
44670;SDS011;48397;53.016;-2.260;2023-06-04T02:43:17;10.55;;;4.65;;
44670;SDS011;48397;53.016;-2.260;2023-06-04T02:48:13;10.70;;;4.60;;
44670;SDS011;48397;53.016;-2.260;2023-06-04T02:50:42;10.10;;;3.92;;
44670;SDS011;48397;53.016;-2.260;2023-06-04T02:53:12;11.18;;;4.63;;
44670;SDS011;48397;53.016;-2.260;2023-06-04T02:55:40;9.00;;;4.15;;
44670;SDS011;48397;53.016;-2.260;2023-06-04T02:58:11;13.57;;;4.53;;
44670;SDS011;48397;53.016;-2.260;2023-06-04T03:00:41;12.05;;;5.05;;
44670;SDS011;48397;53.016;-2.260;2023-06-04T03:05:37;15.68;;;5.50;;
44670;SDS011;48397;53.016;-2.260;2023-06-04T03:08:06;12.68;;;5.00;;
44670;SDS011;48397;53.016;-2.260;2023-06-04T03:10:34;9.60;;;5.07;;
44670;SDS011;48397;53.016;-2.260;2023-06-04T03:13:03;11.25;;;4.72;;
44670;SDS011;48397;53.016;-2.260;2023-06-04T03:15:31;11.93;;;4.75;;
44670;SDS011;48397;53.016;-2.260;2023-06-04T03:20:27;15.75;;;5.25;;
44670;SDS011;48397;53.016;-2.260;2023-06-04T03:22:55;11.30;;;5.05;;
44670;SDS011;48397;53.016;-2.260;2023-06-04T03:25:25;11.77;;;5.50;;
44670;SDS011;48397;53.016;-2.260;2023-06-04T03:27:53;11.57;;;5.05;;
44670;SDS011;48397;53.016;-2.260;2023-06-04T03:32:58;10.68;;;4.32;;
44670;SDS011;48397;53.016;-2.260;2023-06-04T03:35:28;11.10;;;4.65;;
44670;SDS011;48397;53.016;-2.260;2023-06-04T03:37:56;12.15;;;4.95;;
44670;SDS011;48397;53.016;-2.260;2023-06-04T03:40:24;13.23;;;4.80;;
44670;SDS011;48397;53.016;-2.260;2023-06-04T03:42:53;16.25;;;5.40;;
44670;SDS011;48397;53.016;-2.260;2023-06-04T03:45:26;13.77;;;5.22;;
44670;SDS011;48397;53.016;-2.260;2023-06-04T03:47:55;13.50;;;5.43;;
44670;SDS011;48397;53.016;-2.260;2023-06-04T03:50:24;12.55;;;5.00;;
44670;SDS011;48397;53.016;-2.260;2023-06-04T03:52:53;13.02;;;5.40;;
44670;SDS011;48397;53.016;-2.260;2023-06-04T03:55:22;16.30;;;5.68;;
44670;SDS011;48397;53.016;-2.260;2023-06-04T03:57:53;15.18;;;5.43;;
44670;SDS011;48397;53.016;-2.260;2023-06-04T04:00:23;17.30;;;6.47;;
44670;SDS011;48397;53.016;-2.260;2023-06-04T04:02:55;17.05;;;6.13;;
44670;SDS011;48397;53.016;-2.260;2023-06-04T04:05:27;17.80;;;6.40;;
44670;SDS011;48397;53.016;-2.260;2023-06-04T04:07:56;17.80;;;6.18;;
44670;SDS011;48397;53.016;-2.260;2023-06-04T04:10:29;16.20;;;6.55;;
44670;SDS011;48397;53.016;-2.260;2023-06-04T04:12:57;18.52;;;7.03;;
44670;SDS011;48397;53.016;-2.260;2023-06-04T04:15:29;16.42;;;6.38;;
44670;SDS011;48397;53.016;-2.260;2023-06-04T04:17:59;19.33;;;7.07;;
44670;SDS011;48397;53.016;-2.260;2023-06-04T04:20:29;16.10;;;7.00;;
44670;SDS011;48397;53.016;-2.260;2023-06-04T04:23:03;15.35;;;5.88;;
44670;SDS011;48397;53.016;-2.260;2023-06-04T04:25:31;20.30;;;6.57;;
44670;SDS011;48397;53.016;-2.260;2023-06-04T04:28:01;15.18;;;6.55;;
44670;SDS011;48397;53.016;-2.260;2023-06-04T04:30:34;18.73;;;8.27;;
44670;SDS011;48397;53.016;-2.260;2023-06-04T04:33:04;20.90;;;8.55;;
44670;SDS011;48397;53.016;-2.260;2023-06-04T04:35:42;16.13;;;7.05;;
44670;SDS011;48397;53.016;-2.260;2023-06-04T04:38:15;18.48;;;8.20;;
44670;SDS011;48397;53.016;-2.260;2023-06-04T04:40:51;18.95;;;7.55;;
44670;SDS011;48397;53.016;-2.260;2023-06-04T04:43:32;22.13;;;9.25;;
44670;SDS011;48397;53.016;-2.260;2023-06-04T04:46:08;26.02;;;9.15;;
44670;SDS011;48397;53.016;-2.260;2023-06-04T04:48:37;23.13;;;9.15;;
44670;SDS011;48397;53.016;-2.260;2023-06-04T04:51:07;21.42;;;8.55;;
44670;SDS011;48397;53.016;-2.260;2023-06-04T04:53:36;21.33;;;8.98;;
44670;SDS011;48397;53.016;-2.260;2023-06-04T04:56:05;25.20;;;9.35;;
44670;SDS011;48397;53.016;-2.260;2023-06-04T04:58:38;22.80;;;9.20;;
44670;SDS011;48397;53.016;-2.260;2023-06-04T05:01:08;22.98;;;10.07;;
44670;SDS011;48397;53.016;-2.260;2023-06-04T05:03:39;22.42;;;9.23;;
44670;SDS011;48397;53.016;-2.260;2023-06-04T05:06:12;22.75;;;9.45;;
44670;SDS011;48397;53.016;-2.260;2023-06-04T05:08:41;22.05;;;10.10;;
44670;SDS011;48397;53.016;-2.260;2023-06-04T05:11:10;22.90;;;10.25;;
44670;SDS011;48397;53.016;-2.260;2023-06-04T05:13:39;21.65;;;10.35;;
44670;SDS011;48397;53.016;-2.260;2023-06-04T05:16:10;24.27;;;11.18;;
44670;SDS011;48397;53.016;-2.260;2023-06-04T05:18:41;23.33;;;10.07;;
44670;SDS011;48397;53.016;-2.260;2023-06-04T05:21:16;28.17;;;10.82;;
44670;SDS011;48397;53.016;-2.260;2023-06-04T05:23:54;22.90;;;9.75;;
44670;SDS011;48397;53.016;-2.260;2023-06-04T05:26:25;23.77;;;10.88;;
44670;SDS011;48397;53.016;-2.260;2023-06-04T05:28:57;21.38;;;9.75;;
44670;SDS011;48397;53.016;-2.260;2023-06-04T05:31:30;28.27;;;10.25;;
44670;SDS011;48397;53.016;-2.260;2023-06-04T05:34:03;24.38;;;10.02;;
44670;SDS011;48397;53.016;-2.260;2023-06-04T05:36:37;19.17;;;9.20;;
44670;SDS011;48397;53.016;-2.260;2023-06-04T05:39:08;19.58;;;9.85;;
44670;SDS011;48397;53.016;-2.260;2023-06-04T05:41:45;23.38;;;8.70;;
44670;SDS011;48397;53.016;-2.260;2023-06-04T05:44:14;21.83;;;7.53;;
44670;SDS011;48397;53.016;-2.260;2023-06-04T05:46:42;21.63;;;8.38;;
44670;SDS011;48397;53.016;-2.260;2023-06-04T05:49:11;17.73;;;7.60;;
44670;SDS011;48397;53.016;-2.260;2023-06-04T05:51:43;19.27;;;8.25;;
44670;SDS011;48397;53.016;-2.260;2023-06-04T05:54:11;18.45;;;7.70;;
44670;SDS011;48397;53.016;-2.260;2023-06-04T05:56:43;21.38;;;8.23;;
44670;SDS011;48397;53.016;-2.260;2023-06-04T05:59:11;17.45;;;6.90;;
44670;SDS011;48397;53.016;-2.260;2023-06-04T06:01:39;14.80;;;6.88;;
44670;SDS011;48397;53.016;-2.260;2023-06-04T06:04:08;16.05;;;7.15;;
44670;SDS011;48397;53.016;-2.260;2023-06-04T06:06:36;16.20;;;8.02;;
44670;SDS011;48397;53.016;-2.260;2023-06-04T06:09:04;18.23;;;7.35;;
44670;SDS011;48397;53.016;-2.260;2023-06-04T06:11:33;15.32;;;6.82;;
44670;SDS011;48397;53.016;-2.260;2023-06-04T06:14:01;13.90;;;5.70;;
44670;SDS011;48397;53.016;-2.260;2023-06-04T06:16:30;16.33;;;5.57;;
44670;SDS011;48397;53.016;-2.260;2023-06-04T06:19:00;19.42;;;6.65;;
44670;SDS011;48397;53.016;-2.260;2023-06-04T06:21:29;16.38;;;6.57;;
44670;SDS011;48397;53.016;-2.260;2023-06-04T06:28:56;15.63;;;6.63;;
44670;SDS011;48397;53.016;-2.260;2023-06-04T06:33:53;13.98;;;7.32;;
44670;SDS011;48397;53.016;-2.260;2023-06-04T06:38:48;15.00;;;6.75;;
44670;SDS011;48397;53.016;-2.260;2023-06-04T06:41:17;17.83;;;7.28;;
44670;SDS011;48397;53.016;-2.260;2023-06-04T06:43:45;14.32;;;6.57;;
44670;SDS011;48397;53.016;-2.260;2023-06-04T06:46:13;14.02;;;6.07;;
44670;SDS011;48397;53.016;-2.260;2023-06-04T06:48:41;17.40;;;6.50;;
44670;SDS011;48397;53.016;-2.260;2023-06-04T06:51:12;14.20;;;6.75;;
44670;SDS011;48397;53.016;-2.260;2023-06-04T06:56:09;14.80;;;6.50;;
44670;SDS011;48397;53.016;-2.260;2023-06-04T06:58:37;14.57;;;6.30;;
44670;SDS011;48397;53.016;-2.260;2023-06-04T07:01:05;16.58;;;6.40;;
44670;SDS011;48397;53.016;-2.260;2023-06-04T07:03:33;16.02;;;6.45;;
44670;SDS011;48397;53.016;-2.260;2023-06-04T07:06:01;14.90;;;6.00;;
44670;SDS011;48397;53.016;-2.260;2023-06-04T07:08:30;15.18;;;5.53;;
44670;SDS011;48397;53.016;-2.260;2023-06-04T07:10:58;14.45;;;5.78;;
44670;SDS011;48397;53.016;-2.260;2023-06-04T07:13:28;13.10;;;5.22;;
44670;SDS011;48397;53.016;-2.260;2023-06-04T07:15:59;13.95;;;6.57;;
44670;SDS011;48397;53.016;-2.260;2023-06-04T07:18:27;11.93;;;6.47;;
44670;SDS011;48397;53.016;-2.260;2023-06-04T07:20:55;12.70;;;4.90;;
44670;SDS011;48397;53.016;-2.260;2023-06-04T07:23:23;13.20;;;6.40;;
44670;SDS011;48397;53.016;-2.260;2023-06-04T07:25:52;14.85;;;7.00;;
44670;SDS011;48397;53.016;-2.260;2023-06-04T07:28:20;12.98;;;6.68;;
44670;SDS011;48397;53.016;-2.260;2023-06-04T07:30:47;9.80;;;4.97;;
44670;SDS011;48397;53.016;-2.260;2023-06-04T07:33:15;13.05;;;5.28;;
44670;SDS011;48397;53.016;-2.260;2023-06-04T07:35:43;10.90;;;4.65;;
44670;SDS011;48397;53.016;-2.260;2023-06-04T07:38:13;9.65;;;4.80;;
44670;SDS011;48397;53.016;-2.260;2023-06-04T07:40:42;9.07;;;4.60;;
44670;SDS011;48397;53.016;-2.260;2023-06-04T07:43:10;11.30;;;5.05;;
44670;SDS011;48397;53.016;-2.260;2023-06-04T07:45:38;12.85;;;5.13;;
44670;SDS011;48397;53.016;-2.260;2023-06-04T07:48:06;12.20;;;4.75;;
44670;SDS011;48397;53.016;-2.260;2023-06-04T07:50:36;11.93;;;4.75;;
44670;SDS011;48397;53.016;-2.260;2023-06-04T07:53:07;10.52;;;4.50;;
44670;SDS011;48397;53.016;-2.260;2023-06-04T07:58:02;9.20;;;4.30;;
44670;SDS011;48397;53.016;-2.260;2023-06-04T08:00:33;10.07;;;4.28;;
44670;SDS011;48397;53.016;-2.260;2023-06-04T08:03:01;12.65;;;4.78;;
44670;SDS011;48397;53.016;-2.260;2023-06-04T08:05:30;8.32;;;5.00;;
44670;SDS011;48397;53.016;-2.260;2023-06-04T08:10:26;9.43;;;4.97;;
44670;SDS011;48397;53.016;-2.260;2023-06-04T08:12:54;11.30;;;4.60;;
44670;SDS011;48397;53.016;-2.260;2023-06-04T08:15:22;7.18;;;4.05;;
44670;SDS011;48397;53.016;-2.260;2023-06-04T08:18:10;11.07;;;4.60;;
44670;SDS011;48397;53.016;-2.260;2023-06-04T08:20:43;9.85;;;4.40;;
44670;SDS011;48397;53.016;-2.260;2023-06-04T08:23:29;9.32;;;4.57;;
44670;SDS011;48397;53.016;-2.260;2023-06-04T08:28:56;12.07;;;4.13;;
44670;SDS011;48397;53.016;-2.260;2023-06-04T08:31:25;7.28;;;3.88;;
44670;SDS011;48397;53.016;-2.260;2023-06-04T08:34:05;8.32;;;3.95;;
44670;SDS011;48397;53.016;-2.260;2023-06-04T08:36:35;10.05;;;3.90;;
44670;SDS011;48397;53.016;-2.260;2023-06-04T08:39:03;10.23;;;4.10;;
44670;SDS011;48397;53.016;-2.260;2023-06-04T08:41:34;8.68;;;4.05;;
44670;SDS011;48397;53.016;-2.260;2023-06-04T08:44:05;9.43;;;4.20;;
44670;SDS011;48397;53.016;-2.260;2023-06-04T08:49:06;7.88;;;3.35;;
44670;SDS011;48397;53.016;-2.260;2023-06-04T08:51:36;7.78;;;4.32;;
44670;SDS011;48397;53.016;-2.260;2023-06-04T08:54:04;7.63;;;4.13;;
44670;SDS011;48397;53.016;-2.260;2023-06-04T08:56:33;6.72;;;3.30;;
44670;SDS011;48397;53.016;-2.260;2023-06-04T08:59:02;8.60;;;4.20;;
44670;SDS011;48397;53.016;-2.260;2023-06-04T09:01:32;7.70;;;3.60;;
44670;SDS011;48397;53.016;-2.260;2023-06-04T09:04:06;8.45;;;4.03;;
44670;SDS011;48397;53.016;-2.260;2023-06-04T09:06:39;8.93;;;3.70;;
44670;SDS011;48397;53.016;-2.260;2023-06-04T09:09:09;7.95;;;4.30;;
44670;SDS011;48397;53.016;-2.260;2023-06-04T09:11:41;6.50;;;3.60;;
44670;SDS011;48397;53.016;-2.260;2023-06-04T09:14:19;7.82;;;4.03;;
44670;SDS011;48397;53.016;-2.260;2023-06-04T09:16:51;12.73;;;3.92;;
44670;SDS011;48397;53.016;-2.260;2023-06-04T09:19:22;12.60;;;4.43;;
44670;SDS011;48397;53.016;-2.260;2023-06-04T09:21:50;8.38;;;4.13;;
44670;SDS011;48397;53.016;-2.260;2023-06-04T09:24:19;8.85;;;3.92;;
44670;SDS011;48397;53.016;-2.260;2023-06-04T09:26:48;11.10;;;4.40;;
44670;SDS011;48397;53.016;-2.260;2023-06-04T09:29:16;10.15;;;4.47;;
44670;SDS011;48397;53.016;-2.260;2023-06-04T09:31:45;6.57;;;4.07;;
44670;SDS011;48397;53.016;-2.260;2023-06-04T09:34:34;7.60;;;4.10;;
44670;SDS011;48397;53.016;-2.260;2023-06-04T09:37:13;9.70;;;4.40;;
44670;SDS011;48397;53.016;-2.260;2023-06-04T09:39:43;8.10;;;4.10;;
44670;SDS011;48397;53.016;-2.260;2023-06-04T09:42:20;9.98;;;4.60;;
44670;SDS011;48397;53.016;-2.260;2023-06-04T09:44:49;7.45;;;3.88;;
44670;SDS011;48397;53.016;-2.260;2023-06-04T09:47:17;8.35;;;3.72;;
44670;SDS011;48397;53.016;-2.260;2023-06-04T09:49:46;8.43;;;3.85;;
44670;SDS011;48397;53.016;-2.260;2023-06-04T09:52:14;8.45;;;4.20;;
44670;SDS011;48397;53.016;-2.260;2023-06-04T09:54:42;8.43;;;3.72;;
44670;SDS011;48397;53.016;-2.260;2023-06-04T09:57:17;8.60;;;4.20;;
44670;SDS011;48397;53.016;-2.260;2023-06-04T09:59:50;7.28;;;4.20;;
44670;SDS011;48397;53.016;-2.260;2023-06-04T10:02:21;7.32;;;3.80;;
44670;SDS011;48397;53.016;-2.260;2023-06-04T10:04:54;6.38;;;4.00;;
44670;SDS011;48397;53.016;-2.260;2023-06-04T10:07:24;7.75;;;3.67;;
44670;SDS011;48397;53.016;-2.260;2023-06-04T10:09:53;9.07;;;3.58;;
44670;SDS011;48397;53.016;-2.260;2023-06-04T10:12:31;7.18;;;3.60;;
44670;SDS011;48397;53.016;-2.260;2023-06-04T10:15:10;7.00;;;3.90;;
44670;SDS011;48397;53.016;-2.260;2023-06-04T10:17:39;7.75;;;3.95;;
44670;SDS011;48397;53.016;-2.260;2023-06-04T10:20:08;8.82;;;3.83;;
44670;SDS011;48397;53.016;-2.260;2023-06-04T10:22:37;8.65;;;3.63;;
44670;SDS011;48397;53.016;-2.260;2023-06-04T10:25:06;6.93;;;3.83;;
44670;SDS011;48397;53.016;-2.260;2023-06-04T10:27:36;8.45;;;3.90;;
44670;SDS011;48397;53.016;-2.260;2023-06-04T10:30:04;7.53;;;3.88;;
44670;SDS011;48397;53.016;-2.260;2023-06-04T10:32:33;6.22;;;4.00;;
44670;SDS011;48397;53.016;-2.260;2023-06-04T10:35:03;9.02;;;4.15;;
44670;SDS011;48397;53.016;-2.260;2023-06-04T10:37:35;9.23;;;4.45;;
44670;SDS011;48397;53.016;-2.260;2023-06-04T10:40:03;6.20;;;2.83;;
44670;SDS011;48397;53.016;-2.260;2023-06-04T10:42:37;8.63;;;3.47;;
44670;SDS011;48397;53.016;-2.260;2023-06-04T10:45:09;6.93;;;4.03;;
44670;SDS011;48397;53.016;-2.260;2023-06-04T10:47:39;9.15;;;4.80;;
44670;SDS011;48397;53.016;-2.260;2023-06-04T10:50:12;6.00;;;3.70;;
44670;SDS011;48397;53.016;-2.260;2023-06-04T10:52:51;8.32;;;4.20;;
44670;SDS011;48397;53.016;-2.260;2023-06-04T10:55:19;5.22;;;3.13;;
44670;SDS011;48397;53.016;-2.260;2023-06-04T10:57:54;8.35;;;4.28;;
44670;SDS011;48397;53.016;-2.260;2023-06-04T11:03:07;7.68;;;3.35;;
44670;SDS011;48397;53.016;-2.260;2023-06-04T11:05:41;9.02;;;3.63;;
44670;SDS011;48397;53.016;-2.260;2023-06-04T11:08:10;12.10;;;3.72;;
44670;SDS011;48397;53.016;-2.260;2023-06-04T11:10:42;7.90;;;3.97;;
44670;SDS011;48397;53.016;-2.260;2023-06-04T11:13:12;6.13;;;3.95;;
44670;SDS011;48397;53.016;-2.260;2023-06-04T11:15:44;8.90;;;4.13;;
44670;SDS011;48397;53.016;-2.260;2023-06-04T11:18:17;9.40;;;4.45;;
44670;SDS011;48397;53.016;-2.260;2023-06-04T11:20:50;7.20;;;4.00;;
44670;SDS011;48397;53.016;-2.260;2023-06-04T11:23:26;8.20;;;4.40;;
44670;SDS011;48397;53.016;-2.260;2023-06-04T11:25:54;8.48;;;3.83;;
44670;SDS011;48397;53.016;-2.260;2023-06-04T11:28:22;6.97;;;3.85;;
44670;SDS011;48397;53.016;-2.260;2023-06-04T11:33:30;8.65;;;3.97;;
44670;SDS011;48397;53.016;-2.260;2023-06-04T11:36:21;6.43;;;3.72;;
44670;SDS011;48397;53.016;-2.260;2023-06-04T11:38:57;5.82;;;3.67;;
44670;SDS011;48397;53.016;-2.260;2023-06-04T11:41:27;7.45;;;3.53;;
44670;SDS011;48397;53.016;-2.260;2023-06-04T11:43:57;6.60;;;3.53;;
44670;SDS011;48397;53.016;-2.260;2023-06-04T11:46:25;5.35;;;3.28;;
44670;SDS011;48397;53.016;-2.260;2023-06-04T11:48:53;5.32;;;2.83;;
44670;SDS011;48397;53.016;-2.260;2023-06-04T11:51:22;6.55;;;3.17;;
44670;SDS011;48397;53.016;-2.260;2023-06-04T11:53:50;6.75;;;3.42;;
44670;SDS011;48397;53.016;-2.260;2023-06-04T11:56:18;7.40;;;3.20;;
44670;SDS011;48397;53.016;-2.260;2023-06-04T11:58:47;6.55;;;3.88;;
44670;SDS011;48397;53.016;-2.260;2023-06-04T12:01:14;6.93;;;3.40;;
44670;SDS011;48397;53.016;-2.260;2023-06-04T12:03:42;5.82;;;3.28;;
44670;SDS011;48397;53.016;-2.260;2023-06-04T12:06:19;9.20;;;3.97;;
44670;SDS011;48397;53.016;-2.260;2023-06-04T12:08:52;6.38;;;3.13;;
44670;SDS011;48397;53.016;-2.260;2023-06-04T12:13:55;8.07;;;3.30;;
44670;SDS011;48397;53.016;-2.260;2023-06-04T12:16:25;5.88;;;3.50;;
44670;SDS011;48397;53.016;-2.260;2023-06-04T12:19:10;6.50;;;3.90;;
44670;SDS011;48397;53.016;-2.260;2023-06-04T12:21:39;6.43;;;3.42;;
44670;SDS011;48397;53.016;-2.260;2023-06-04T12:24:10;7.72;;;3.80;;
44670;SDS011;48397;53.016;-2.260;2023-06-04T12:26:42;6.10;;;3.65;;
44670;SDS011;48397;53.016;-2.260;2023-06-04T12:29:14;7.90;;;3.50;;
44670;SDS011;48397;53.016;-2.260;2023-06-04T12:31:43;8.98;;;3.60;;
44670;SDS011;48397;53.016;-2.260;2023-06-04T12:34:13;6.10;;;3.38;;
44670;SDS011;48397;53.016;-2.260;2023-06-04T12:36:41;6.53;;;3.83;;
44670;SDS011;48397;53.016;-2.260;2023-06-04T12:39:10;9.45;;;4.03;;
44670;SDS011;48397;53.016;-2.260;2023-06-04T12:41:39;7.85;;;3.50;;
44670;SDS011;48397;53.016;-2.260;2023-06-04T12:44:13;8.40;;;4.03;;
44670;SDS011;48397;53.016;-2.260;2023-06-04T12:46:41;6.10;;;3.67;;
44670;SDS011;48397;53.016;-2.260;2023-06-04T12:49:09;7.22;;;3.83;;
44670;SDS011;48397;53.016;-2.260;2023-06-04T12:54:05;6.18;;;3.75;;
44670;SDS011;48397;53.016;-2.260;2023-06-04T12:56:33;5.55;;;3.30;;
44670;SDS011;48397;53.016;-2.260;2023-06-04T12:59:01;6.40;;;3.10;;
44670;SDS011;48397;53.016;-2.260;2023-06-04T13:01:29;8.00;;;4.30;;
44670;SDS011;48397;53.016;-2.260;2023-06-04T13:03:56;6.82;;;4.28;;
44670;SDS011;48397;53.016;-2.260;2023-06-04T13:06:24;7.57;;;3.97;;
44670;SDS011;48397;53.016;-2.260;2023-06-04T13:08:53;7.28;;;4.10;;
44670;SDS011;48397;53.016;-2.260;2023-06-04T13:11:20;7.88;;;3.70;;
44670;SDS011;48397;53.016;-2.260;2023-06-04T13:13:48;6.97;;;4.15;;
44670;SDS011;48397;53.016;-2.260;2023-06-04T13:16:16;7.63;;;3.85;;
44670;SDS011;48397;53.016;-2.260;2023-06-04T13:18:44;3.45;;;2.42;;
44670;SDS011;48397;53.016;-2.260;2023-06-04T13:21:12;7.43;;;3.67;;
44670;SDS011;48397;53.016;-2.260;2023-06-04T13:23:40;8.85;;;3.88;;
44670;SDS011;48397;53.016;-2.260;2023-06-04T13:26:14;5.38;;;2.78;;
44670;SDS011;48397;53.016;-2.260;2023-06-04T13:28:42;6.63;;;3.50;;
44670;SDS011;48397;53.016;-2.260;2023-06-04T13:31:10;5.68;;;4.25;;
44670;SDS011;48397;53.016;-2.260;2023-06-04T13:33:38;7.25;;;3.90;;
44670;SDS011;48397;53.016;-2.260;2023-06-04T13:36:06;6.05;;;3.80;;
44670;SDS011;48397;53.016;-2.260;2023-06-04T13:38:34;7.70;;;3.92;;
44670;SDS011;48397;53.016;-2.260;2023-06-04T13:41:02;7.13;;;3.95;;
44670;SDS011;48397;53.016;-2.260;2023-06-04T13:43:30;5.28;;;3.28;;
44670;SDS011;48397;53.016;-2.260;2023-06-04T13:45:58;6.75;;;4.00;;
44670;SDS011;48397;53.016;-2.260;2023-06-04T13:48:26;8.68;;;4.10;;
44670;SDS011;48397;53.016;-2.260;2023-06-04T13:50:54;7.28;;;3.97;;
44670;SDS011;48397;53.016;-2.260;2023-06-04T13:53:23;6.00;;;3.78;;
44670;SDS011;48397;53.016;-2.260;2023-06-04T13:55:51;8.05;;;3.95;;
44670;SDS011;48397;53.016;-2.260;2023-06-04T13:58:25;7.95;;;3.63;;
44670;SDS011;48397;53.016;-2.260;2023-06-04T14:00:53;5.60;;;3.65;;
44670;SDS011;48397;53.016;-2.260;2023-06-04T14:03:21;7.05;;;3.78;;
44670;SDS011;48397;53.016;-2.260;2023-06-04T14:05:49;6.78;;;3.58;;
44670;SDS011;48397;53.016;-2.260;2023-06-04T14:08:17;7.65;;;3.95;;
44670;SDS011;48397;53.016;-2.260;2023-06-04T14:10:45;6.35;;;3.25;;
44670;SDS011;48397;53.016;-2.260;2023-06-04T14:13:13;7.43;;;4.00;;
44670;SDS011;48397;53.016;-2.260;2023-06-04T14:15:41;8.88;;;5.55;;
44670;SDS011;48397;53.016;-2.260;2023-06-04T14:18:09;5.22;;;3.33;;
44670;SDS011;48397;53.016;-2.260;2023-06-04T14:20:37;7.53;;;3.70;;
44670;SDS011;48397;53.016;-2.260;2023-06-04T14:23:05;7.47;;;5.78;;
44670;SDS011;48397;53.016;-2.260;2023-06-04T14:25:33;7.53;;;5.65;;
44670;SDS011;48397;53.016;-2.260;2023-06-04T14:28:03;7.07;;;5.10;;
44670;SDS011;48397;53.016;-2.260;2023-06-04T14:30:31;8.80;;;4.47;;
44670;SDS011;48397;53.016;-2.260;2023-06-04T14:32:59;7.35;;;4.20;;
44670;SDS011;48397;53.016;-2.260;2023-06-04T14:35:27;8.07;;;4.03;;
44670;SDS011;48397;53.016;-2.260;2023-06-04T14:37:55;5.50;;;3.35;;
44670;SDS011;48397;53.016;-2.260;2023-06-04T14:40:23;6.65;;;3.40;;
44670;SDS011;48397;53.016;-2.260;2023-06-04T14:42:51;5.75;;;3.50;;
44670;SDS011;48397;53.016;-2.260;2023-06-04T14:45:20;4.78;;;3.40;;
44670;SDS011;48397;53.016;-2.260;2023-06-04T14:47:48;5.60;;;3.40;;
44670;SDS011;48397;53.016;-2.260;2023-06-04T14:50:38;7.47;;;3.47;;
44670;SDS011;48397;53.016;-2.260;2023-06-04T14:53:06;6.63;;;3.60;;
44670;SDS011;48397;53.016;-2.260;2023-06-04T14:55:35;6.25;;;3.22;;
44670;SDS011;48397;53.016;-2.260;2023-06-04T14:58:03;3.92;;;2.72;;
44670;SDS011;48397;53.016;-2.260;2023-06-04T15:00:32;4.63;;;3.08;;
44670;SDS011;48397;53.016;-2.260;2023-06-04T15:03:00;6.18;;;3.67;;
44670;SDS011;48397;53.016;-2.260;2023-06-04T15:05:33;8.70;;;5.63;;
44670;SDS011;48397;53.016;-2.260;2023-06-04T15:08:02;7.28;;;4.20;;
44670;SDS011;48397;53.016;-2.260;2023-06-04T15:10:30;6.35;;;3.92;;
44670;SDS011;48397;53.016;-2.260;2023-06-04T15:13:01;9.30;;;5.38;;
44670;SDS011;48397;53.016;-2.260;2023-06-04T15:15:28;6.63;;;3.97;;
44670;SDS011;48397;53.016;-2.260;2023-06-04T15:17:56;6.13;;;3.50;;
44670;SDS011;48397;53.016;-2.260;2023-06-04T15:20:25;7.22;;;4.53;;
44670;SDS011;48397;53.016;-2.260;2023-06-04T15:22:55;6.10;;;3.60;;
44670;SDS011;48397;53.016;-2.260;2023-06-04T15:25:23;6.35;;;3.47;;
44670;SDS011;48397;53.016;-2.260;2023-06-04T15:27:51;19.45;;;12.15;;
44670;SDS011;48397;53.016;-2.260;2023-06-04T15:30:21;8.70;;;5.38;;
44670;SDS011;48397;53.016;-2.260;2023-06-04T15:32:49;13.25;;;8.35;;
44670;SDS011;48397;53.016;-2.260;2023-06-04T15:35:17;12.43;;;6.60;;
44670;SDS011;48397;53.016;-2.260;2023-06-04T15:37:46;17.15;;;10.07;;
44670;SDS011;48397;53.016;-2.260;2023-06-04T15:40:16;16.55;;;11.60;;
44670;SDS011;48397;53.016;-2.260;2023-06-04T15:42:59;6.10;;;3.40;;
44670;SDS011;48397;53.016;-2.260;2023-06-04T15:48:25;10.63;;;6.60;;